Terminal Aerodrome Forecast
Issued by NWS Missoula, MT

Home | Current Version | Previous Version | Text Only | Print | Product List | Glossary On
Versions: 1 2 3 4 5 6 7 8 9 10 11 12 13
000
FTUS45 KMSO 181725
TAFBTM
TAF
KBTM 181725Z 1818/1918 VRB06KT P6SM SCT080
     FM182000 33012G22KT P6SM BKN060
     FM190200 VRB06KT P6SM BKN060=

USA.gov is the U.S. government's official web portal to all federal, state and local government web resources and services.